createdAt,value
2017-07-19T00:02:22.045Z,24.70
2017-07-19T00:04:49.473Z,25.20
2017-07-19T00:07:16.893Z,25.30
2017-07-19T00:09:44.489Z,25.00
2017-07-19T00:12:12.690Z,25.60
2017-07-19T00:14:40.105Z,25.60
2017-07-19T00:17:07.545Z,25.30
2017-07-19T00:19:34.971Z,25.90
2017-07-19T00:22:02.397Z,25.90
2017-07-19T00:24:29.816Z,26.00
2017-07-19T00:26:57.253Z,26.40
2017-07-19T00:29:24.669Z,25.80
2017-07-19T00:31:52.096Z,26.40
2017-07-19T00:34:19.521Z,26.50
2017-07-19T00:36:46.952Z,26.70
2017-07-19T00:39:14.376Z,27.00
2017-07-19T00:41:41.815Z,27.10
2017-07-19T00:44:09.232Z,27.60
2017-07-19T00:46:36.652Z,27.80
2017-07-19T00:49:04.089Z,27.90
2017-07-19T00:51:32.298Z,29.20
2017-07-19T00:53:59.719Z,29.00
2017-07-19T00:56:27.139Z,29.10
2017-07-19T00:58:54.579Z,29.10
2017-07-19T01:01:22.001Z,28.20
2017-07-19T01:03:49.436Z,27.90
2017-07-19T01:06:17.620Z,27.50
2017-07-19T01:08:45.053Z,27.50
2017-07-19T01:11:12.476Z,28.00
2017-07-19T01:13:39.921Z,28.10
2017-07-19T01:16:07.480Z,27.80
2017-07-19T01:18:34.906Z,27.70
2017-07-19T01:21:02.332Z,28.30
2017-07-19T01:23:29.765Z,28.00
2017-07-19T01:25:57.192Z,27.50
2017-07-19T01:28:24.609Z,27.40
2017-07-19T01:30:52.809Z,26.70
2017-07-19T01:33:20.228Z,26.70
2017-07-19T01:35:47.686Z,27.10
2017-07-19T01:38:15.109Z,27.60
2017-07-19T01:40:42.532Z,27.20
2017-07-19T01:43:09.952Z,28.10
2017-07-19T01:45:37.404Z,27.40
2017-07-19T01:48:04.829Z,27.90
2017-07-19T01:50:32.253Z,28.20
2017-07-19T01:52:59.688Z,28.20
2017-07-19T01:55:27.104Z,28.80
2017-07-19T01:57:54.549Z,28.70
2017-07-19T02:00:21.964Z,28.80
2017-07-19T02:02:49.397Z,28.80
2017-07-19T02:05:16.826Z,28.50
2017-07-19T02:07:44.251Z,28.20
2017-07-19T02:10:11.801Z,28.20
2017-07-19T02:12:39.282Z,28.40
2017-07-19T02:15:06.708Z,28.70
2017-07-19T02:17:34.142Z,28.80
2017-07-19T02:20:01.566Z,28.70
2017-07-19T02:22:28.988Z,28.70
2017-07-19T02:24:56.433Z,28.70
2017-07-19T02:27:23.852Z,28.70
2017-07-19T02:29:51.281Z,28.70
2017-07-19T02:32:18.704Z,28.30
2017-07-19T02:34:46.130Z,28.90
2017-07-19T02:37:13.544Z,29.30
2017-07-19T02:39:40.976Z,29.20
2017-07-19T02:42:08.401Z,28.30
2017-07-19T02:44:35.827Z,28.70
2017-07-19T02:47:03.253Z,28.70
2017-07-19T02:49:30.679Z,29.90
2017-07-19T02:51:58.106Z,29.70
2017-07-19T02:54:25.541Z,29.60
2017-07-19T02:56:52.951Z,29.80
2017-07-19T02:59:20.393Z,30.10
2017-07-19T03:01:47.807Z,31.10
2017-07-19T03:04:15.236Z,30.60
2017-07-19T03:06:42.655Z,31.40
2017-07-19T03:09:10.084Z,31.20
2017-07-19T03:11:37.507Z,30.40
2017-07-19T03:14:04.929Z,30.20
2017-07-19T03:16:33.131Z,31.30
2017-07-19T03:19:00.546Z,31.30
2017-07-19T03:21:27.973Z,32.20
2017-07-19T03:23:55.402Z,32.40
2017-07-19T03:26:22.828Z,32.30
2017-07-19T03:28:50.249Z,32.30
2017-07-19T03:31:17.676Z,33.00
2017-07-19T03:33:45.350Z,33.10
2017-07-19T03:36:12.795Z,33.30
2017-07-19T03:38:40.213Z,33.00
2017-07-19T03:41:07.640Z,30.60
2017-07-19T03:43:35.065Z,29.90
2017-07-19T03:46:02.492Z,29.40
2017-07-19T03:48:29.917Z,30.00
2017-07-19T03:50:58.120Z,29.50
2017-07-19T03:53:25.532Z,29.50
2017-07-19T03:55:52.982Z,29.80
2017-07-19T03:58:20.403Z,30.50
2017-07-19T04:00:47.816Z,30.50
2017-07-19T04:03:16.009Z,32.40
2017-07-19T04:05:43.432Z,32.30
2017-07-19T04:08:10.964Z,33.40
2017-07-19T04:10:38.388Z,33.30
2017-07-19T04:13:05.807Z,33.40
2017-07-19T04:15:33.232Z,34.20
2017-07-19T04:18:00.656Z,34.10
2017-07-19T04:20:28.084Z,34.90
2017-07-19T04:22:56.309Z,34.90
2017-07-19T04:25:23.732Z,34.90
2017-07-19T04:27:51.164Z,35.00
2017-07-19T04:30:18.580Z,35.00
2017-07-19T04:32:46.028Z,34.10
2017-07-19T04:35:13.451Z,34.50
2017-07-19T04:37:40.870Z,34.50
2017-07-19T04:40:08.297Z,33.50
2017-07-19T04:42:35.726Z,34.40
2017-07-19T04:45:03.155Z,33.40
2017-07-19T04:47:30.769Z,32.30
2017-07-19T04:49:58.496Z,33.80
2017-07-19T04:52:25.913Z,32.70
2017-07-19T04:54:53.340Z,33.20
2017-07-19T04:57:20.766Z,32.30
2017-07-19T04:59:48.203Z,32.50
2017-07-19T05:02:15.777Z,30.80
2017-07-19T05:04:43.229Z,30.20
2017-07-19T05:07:10.688Z,30.70
2017-07-19T05:09:38.100Z,30.80
2017-07-19T05:12:05.523Z,31.60
2017-07-19T05:14:32.944Z,31.80
2017-07-19T05:17:00.638Z,35.10
2017-07-19T05:19:28.065Z,34.80
2017-07-19T05:21:55.487Z,34.90
2017-07-19T05:24:22.904Z,33.10
2017-07-19T05:26:50.342Z,33.30
2017-07-19T05:29:17.772Z,33.90
2017-07-19T05:31:45.977Z,33.90
2017-07-19T05:34:13.399Z,33.80
2017-07-19T05:36:40.832Z,33.00
2017-07-19T05:39:08.262Z,33.50
2017-07-19T05:41:35.671Z,33.70
2017-07-19T05:44:03.882Z,33.10
2017-07-19T05:46:31.296Z,33.80
2017-07-19T05:48:58.732Z,34.10
2017-07-19T05:51:26.160Z,33.20
2017-07-19T05:53:53.710Z,33.10
2017-07-19T05:56:21.132Z,33.80
2017-07-19T05:58:48.578Z,33.20
2017-07-19T06:01:15.996Z,33.30
2017-07-19T06:03:43.462Z,32.80
2017-07-19T06:06:10.899Z,32.40
2017-07-19T06:08:38.325Z,31.80
2017-07-19T06:11:05.793Z,31.40
2017-07-19T06:13:33.220Z,30.20
2017-07-19T06:16:01.430Z,31.90
2017-07-19T06:18:28.844Z,31.20
2017-07-19T06:20:56.277Z,30.30
2017-07-19T06:23:23.699Z,29.90
2017-07-19T06:25:51.146Z,28.40
2017-07-19T06:28:18.568Z,28.20
2017-07-19T06:30:46.764Z,27.40
2017-07-19T06:33:14.185Z,27.40
2017-07-19T06:35:41.604Z,27.30
2017-07-19T06:38:09.036Z,27.40
2017-07-19T06:40:36.452Z,27.30
2017-07-19T06:43:04.658Z,25.90
2017-07-19T06:45:32.085Z,25.90
2017-07-19T06:47:59.511Z,26.00
2017-07-19T06:50:26.933Z,26.40
2017-07-19T06:52:54.360Z,26.70
2017-07-19T06:55:22.548Z,26.00
2017-07-19T06:57:49.989Z,26.00
2017-07-19T07:00:17.408Z,25.00
2017-07-19T07:02:44.838Z,23.50
2017-07-19T07:05:12.260Z,24.40
2017-07-19T07:07:40.464Z,24.70
2017-07-19T07:10:07.953Z,24.60
2017-07-19T07:12:35.404Z,24.90
2017-07-19T07:15:02.839Z,24.20
2017-07-19T07:17:30.257Z,24.90
2017-07-19T07:19:57.694Z,24.90
2017-07-19T07:22:25.111Z,23.60
2017-07-19T07:24:52.532Z,23.10
2017-07-19T07:27:19.965Z,23.10
2017-07-19T07:29:47.389Z,23.10
2017-07-19T07:32:14.809Z,22.80
2017-07-19T07:34:42.244Z,22.70
2017-07-19T07:37:09.677Z,22.80
2017-07-19T07:39:37.121Z,23.50
2017-07-19T07:42:04.553Z,21.40
2017-07-19T07:44:31.976Z,22.20
2017-07-19T07:46:59.425Z,21.40
2017-07-19T07:49:26.847Z,21.50
2017-07-19T07:51:54.272Z,22.40
2017-07-19T07:54:21.697Z,21.30
2017-07-19T07:56:49.897Z,21.30
2017-07-19T07:59:17.330Z,21.30
2017-07-19T08:01:44.757Z,22.20
2017-07-19T08:04:12.180Z,21.60
2017-07-19T08:06:39.607Z,22.20
2017-07-19T08:09:07.035Z,22.10
2017-07-19T08:11:35.223Z,22.00
2017-07-19T08:14:02.652Z,22.00
2017-07-19T08:16:30.087Z,21.60
2017-07-19T08:21:24.489Z,21.20
2017-07-19T08:23:51.921Z,20.10
2017-07-19T08:26:19.336Z,20.80
2017-07-19T08:28:46.774Z,21.10
2017-07-19T08:31:14.217Z,20.10
2017-07-19T08:33:41.749Z,19.90
2017-07-19T08:36:09.164Z,19.80
2017-07-19T08:38:36.592Z,17.90
2017-07-19T08:41:04.020Z,17.60
2017-07-19T08:43:31.472Z,17.20
2017-07-19T08:45:58.886Z,18.30
2017-07-19T08:48:27.068Z,18.30
2017-07-19T08:50:54.500Z,18.30
2017-07-19T08:53:21.921Z,18.20
2017-07-19T08:55:49.348Z,17.70
2017-07-19T08:58:16.767Z,15.30
2017-07-19T09:00:44.969Z,16.60
2017-07-19T09:03:12.390Z,16.50
2017-07-19T09:05:39.826Z,16.40
2017-07-19T09:08:07.244Z,14.40
2017-07-19T09:10:34.668Z,17.00
2017-07-19T09:13:02.852Z,17.10
2017-07-19T09:15:30.289Z,17.00
2017-07-19T09:17:57.714Z,15.30
2017-07-19T09:20:25.166Z,14.20
2017-07-19T09:22:52.580Z,15.10
2017-07-19T09:25:20.007Z,13.40
2017-07-19T09:27:47.440Z,14.00
2017-07-19T09:30:14.871Z,12.70
2017-07-19T09:32:42.305Z,13.10
2017-07-19T09:35:09.726Z,14.60
2017-07-19T09:40:11.077Z,14.10
2017-07-19T09:42:38.501Z,12.90
2017-07-19T09:45:05.916Z,13.10
2017-07-19T09:47:33.349Z,12.60
2017-07-19T09:50:00.768Z,13.00
2017-07-19T09:52:28.195Z,13.80
2017-07-19T09:54:55.608Z,11.80
2017-07-19T09:57:23.033Z,11.50
2017-07-19T09:59:50.462Z,10.70
2017-07-19T10:02:17.892Z,11.10
2017-07-19T10:04:45.476Z,10.60
2017-07-19T10:07:12.901Z,11.20
2017-07-19T10:09:40.344Z,9.70
2017-07-19T10:12:07.774Z,8.50
2017-07-19T10:14:35.192Z,9.20
2017-07-19T10:17:02.613Z,9.40
2017-07-19T10:19:30.036Z,9.30
2017-07-19T10:21:57.451Z,9.70
2017-07-19T10:24:24.872Z,9.40
2017-07-19T10:26:52.304Z,10.00
2017-07-19T10:29:19.720Z,7.70
2017-07-19T10:31:47.937Z,7.90
2017-07-19T10:34:15.369Z,7.90
2017-07-19T10:36:42.783Z,7.90
2017-07-19T10:39:10.213Z,6.80
2017-07-19T10:41:37.632Z,6.60
2017-07-19T10:44:05.213Z,7.30
2017-07-19T10:46:32.633Z,7.20
2017-07-19T10:49:00.124Z,7.10
2017-07-19T10:51:27.536Z,5.60
2017-07-19T10:53:54.976Z,5.70
2017-07-19T10:56:22.398Z,5.00
2017-07-19T10:58:49.808Z,5.30
2017-07-19T11:01:17.995Z,4.60
2017-07-19T11:03:45.417Z,4.50
2017-07-19T11:06:12.841Z,4.10
2017-07-19T11:08:40.259Z,3.80
2017-07-19T11:11:07.693Z,2.80
2017-07-19T11:13:35.878Z,1.90
2017-07-19T11:16:03.379Z,1.90
2017-07-19T11:18:30.800Z,1.80
2017-07-19T11:20:58.233Z,2.20
2017-07-19T11:23:25.739Z,2.80
2017-07-19T11:25:53.164Z,2.60
2017-07-19T11:28:20.585Z,2.10
2017-07-19T11:30:48.026Z,2.70
2017-07-19T11:33:15.445Z,2.80
2017-07-19T11:35:42.873Z,1.90
2017-07-19T11:38:11.060Z,1.40
2017-07-19T11:40:38.494Z,1.40
2017-07-19T11:43:05.932Z,2.00
2017-07-19T11:45:33.333Z,2.30
2017-07-19T11:48:00.756Z,2.40
2017-07-19T11:50:28.176Z,1.70
2017-07-19T11:52:55.599Z,3.10
2017-07-19T11:55:23.011Z,1.90
2017-07-19T11:57:50.440Z,1.40
2017-07-19T12:00:17.852Z,1.90
2017-07-19T12:02:45.284Z,1.20
2017-07-19T12:05:12.695Z,1.70
2017-07-19T12:07:40.121Z,1.40
2017-07-19T12:10:08.310Z,1.00
2017-07-19T12:12:35.731Z,1.00
2017-07-19T12:15:03.144Z,1.60
2017-07-19T12:17:30.571Z,1.30
2017-07-19T12:19:57.988Z,1.00
2017-07-19T12:22:25.421Z,1.60
2017-07-19T12:24:52.951Z,1.40
2017-07-19T12:27:20.394Z,1.00
2017-07-19T12:29:47.893Z,1.00
2017-07-19T12:32:15.314Z,1.00
2017-07-19T12:34:42.740Z,1.00
2017-07-19T12:37:10.933Z,1.00
2017-07-19T12:39:38.356Z,1.00
2017-07-19T12:42:05.769Z,1.00
2017-07-19T12:44:33.192Z,1.00
2017-07-19T12:47:00.608Z,1.00
2017-07-19T12:49:28.040Z,1.00
2017-07-19T12:51:55.464Z,1.00
2017-07-19T12:54:22.881Z,1.00
2017-07-19T12:56:50.308Z,1.00
2017-07-19T12:59:17.716Z,1.00
2017-07-19T13:01:45.142Z,1.00
2017-07-19T13:04:12.564Z,1.00
2017-07-19T13:06:39.988Z,1.00
2017-07-19T13:09:07.413Z,1.00
2017-07-19T13:11:34.834Z,1.00
2017-07-19T13:14:02.261Z,1.00
2017-07-19T13:16:29.705Z,1.00
2017-07-19T13:18:57.117Z,1.00
2017-07-19T13:21:24.548Z,1.00
2017-07-19T13:23:51.965Z,1.00
2017-07-19T13:26:19.400Z,1.00
2017-07-19T13:28:46.819Z,1.00
2017-07-19T13:31:14.244Z,1.00
2017-07-19T13:33:41.668Z,1.00
2017-07-19T13:36:09.092Z,1.00
2017-07-19T13:38:36.517Z,1.00
2017-07-19T13:41:03.938Z,1.00
2017-07-19T13:43:31.372Z,1.00
2017-07-19T13:45:58.789Z,1.00
2017-07-19T13:48:26.218Z,1.00
2017-07-19T13:50:53.628Z,1.00
2017-07-19T13:53:21.057Z,1.00
2017-07-19T13:55:48.516Z,1.00
2017-07-19T13:58:15.939Z,1.00
2017-07-19T14:00:44.117Z,1.00
2017-07-19T14:03:11.545Z,1.00
2017-07-19T14:05:38.983Z,1.00
2017-07-19T14:08:06.407Z,1.00
2017-07-19T14:10:33.825Z,1.00
2017-07-19T14:13:01.251Z,1.00
2017-07-19T14:15:28.666Z,1.00
2017-07-19T14:17:56.084Z,1.00
2017-07-19T14:20:23.687Z,1.00
2017-07-19T14:22:51.107Z,1.00
2017-07-19T14:25:18.532Z,1.00
2017-07-19T14:27:45.956Z,1.00
2017-07-19T14:30:13.376Z,1.00
2017-07-19T14:32:40.797Z,1.00
2017-07-19T14:35:08.221Z,1.00
2017-07-19T14:37:35.648Z,1.00
2017-07-19T14:40:03.085Z,1.00
2017-07-19T14:42:30.502Z,1.00
2017-07-19T14:44:57.921Z,1.00
2017-07-19T14:47:26.107Z,1.00
2017-07-19T14:49:53.524Z,1.00
2017-07-19T14:52:20.948Z,1.00
2017-07-19T14:54:48.369Z,1.00
2017-07-19T14:57:15.800Z,1.00
2017-07-19T14:59:43.289Z,1.00
2017-07-19T15:02:10.722Z,1.00
2017-07-19T15:04:38.127Z,1.00
2017-07-19T15:07:05.566Z,1.00
2017-07-19T15:09:32.976Z,1.00
2017-07-19T15:12:00.596Z,1.00
2017-07-19T15:14:28.020Z,1.00
2017-07-19T15:16:55.520Z,1.00
2017-07-19T15:19:22.945Z,1.00
2017-07-19T15:21:50.377Z,1.00
2017-07-19T15:24:18.561Z,1.00
2017-07-19T15:26:45.993Z,1.00
2017-07-19T15:29:13.404Z,1.00
2017-07-19T15:31:40.854Z,1.00
2017-07-19T15:34:08.279Z,1.00
2017-07-19T15:36:36.462Z,1.00
2017-07-19T15:39:03.910Z,1.00
2017-07-19T15:41:31.330Z,1.00
2017-07-19T15:43:58.770Z,1.00
2017-07-19T15:46:26.262Z,1.00
2017-07-19T15:48:53.681Z,1.00
2017-07-19T15:51:21.092Z,1.00
2017-07-19T15:53:48.541Z,1.00
2017-07-19T15:56:16.746Z,1.00
2017-07-19T15:58:44.161Z,1.00
2017-07-19T16:01:11.581Z,1.00
2017-07-19T16:03:39.008Z,1.00
2017-07-19T16:06:06.576Z,1.00
2017-07-19T16:08:33.992Z,1.00
2017-07-19T16:11:01.437Z,1.00
2017-07-19T16:13:28.866Z,1.00
2017-07-19T16:15:56.356Z,1.00
2017-07-19T16:18:23.771Z,1.00
2017-07-19T16:20:51.213Z,1.00
2017-07-19T16:23:18.647Z,1.00
2017-07-19T16:25:46.083Z,1.00
2017-07-19T16:28:14.320Z,1.00
2017-07-19T16:30:41.874Z,1.00
2017-07-19T16:33:09.350Z,1.00
2017-07-19T16:35:36.770Z,1.00
2017-07-19T16:38:04.335Z,1.00
2017-07-19T16:40:31.844Z,1.00
2017-07-19T16:42:59.554Z,1.00
2017-07-19T16:45:26.957Z,1.00
2017-07-19T16:47:55.157Z,1.00
2017-07-19T16:50:22.572Z,1.00
2017-07-19T16:52:50.025Z,1.00
2017-07-19T16:55:17.451Z,1.00
2017-07-19T16:57:44.876Z,1.00
2017-07-19T17:00:12.320Z,1.00
2017-07-19T17:02:39.751Z,1.00
2017-07-19T17:05:07.177Z,1.00
2017-07-19T17:07:34.597Z,1.00
2017-07-19T17:10:02.013Z,1.00
2017-07-19T17:12:29.449Z,1.00
2017-07-19T17:14:56.862Z,1.00
2017-07-19T17:17:24.294Z,1.00
2017-07-19T17:19:51.709Z,1.00
2017-07-19T17:22:19.164Z,1.00
2017-07-19T17:24:46.594Z,1.00
2017-07-19T17:27:14.079Z,1.00
2017-07-19T17:29:41.505Z,1.00
2017-07-19T17:32:08.933Z,1.20
2017-07-19T17:37:14.705Z,1.10
2017-07-19T17:39:42.128Z,1.40
2017-07-19T17:42:09.540Z,1.80
2017-07-19T17:44:37.067Z,2.50
2017-07-19T17:47:04.480Z,2.40
2017-07-19T17:49:31.904Z,2.30
2017-07-19T17:51:59.316Z,2.40
2017-07-19T17:54:26.737Z,3.10
2017-07-19T17:56:54.282Z,3.40
2017-07-19T17:59:21.744Z,3.10
2017-07-19T18:01:49.162Z,2.90
2017-07-19T18:04:17.349Z,6.80
2017-07-19T18:06:44.773Z,6.80
2017-07-19T18:09:12.185Z,5.40
2017-07-19T18:11:39.621Z,4.50
2017-07-19T18:14:07.033Z,5.00
2017-07-19T18:16:34.467Z,6.10
2017-07-19T18:19:01.880Z,6.60
2017-07-19T18:21:29.308Z,6.60
2017-07-19T18:23:56.727Z,6.60
2017-07-19T18:26:24.166Z,8.30
2017-07-19T18:28:51.593Z,6.50
2017-07-19T18:31:19.019Z,7.10
2017-07-19T18:33:46.435Z,7.70
2017-07-19T18:36:13.852Z,7.70
2017-07-19T18:38:42.337Z,7.60
2017-07-19T18:41:09.753Z,7.60
2017-07-19T18:43:37.171Z,7.50
2017-07-19T18:46:04.588Z,8.80
2017-07-19T18:48:32.782Z,10.20
2017-07-19T18:51:00.219Z,10.10
2017-07-19T18:53:27.664Z,8.80
2017-07-19T18:55:55.085Z,8.90
2017-07-19T18:58:22.529Z,9.00
2017-07-19T19:00:49.996Z,9.50
2017-07-19T19:03:17.419Z,9.90
2017-07-19T19:05:44.837Z,9.50
2017-07-19T19:08:12.272Z,10.10
2017-07-19T19:10:39.700Z,9.20
2017-07-19T19:13:07.129Z,9.30
2017-07-19T19:15:34.545Z,9.20
2017-07-19T19:18:01.977Z,9.50
2017-07-19T19:20:29.400Z,9.80
2017-07-19T19:22:56.812Z,9.90
2017-07-19T19:25:24.245Z,10.60
2017-07-19T19:27:51.675Z,11.40
2017-07-19T19:30:19.108Z,11.30
2017-07-19T19:32:46.524Z,10.90
2017-07-19T19:35:13.948Z,10.70
2017-07-19T19:37:41.369Z,9.30
2017-07-19T19:40:08.815Z,10.20
2017-07-19T19:42:36.240Z,11.00
2017-07-19T19:45:03.660Z,11.50
2017-07-19T19:47:31.087Z,11.20
2017-07-19T19:49:58.512Z,11.10
2017-07-19T19:52:26.053Z,11.00
2017-07-19T19:54:53.467Z,11.40
2017-07-19T19:57:20.970Z,12.40
2017-07-19T19:59:48.393Z,12.60
2017-07-19T20:02:15.824Z,12.80
2017-07-19T20:04:43.244Z,12.70
2017-07-19T20:07:11.284Z,12.70
2017-07-19T20:09:38.733Z,12.90
2017-07-19T20:12:06.184Z,13.10
2017-07-19T20:14:33.601Z,13.00
2017-07-19T20:17:01.020Z,12.50
2017-07-19T20:19:28.444Z,12.90
2017-07-19T20:21:55.869Z,13.10
2017-07-19T20:24:23.305Z,13.10
2017-07-19T20:26:50.720Z,13.20
2017-07-19T20:29:18.147Z,12.90
2017-07-19T20:31:46.360Z,12.90
2017-07-19T20:34:13.791Z,13.50
2017-07-19T20:36:41.196Z,13.80
2017-07-19T20:39:08.637Z,13.40
2017-07-19T20:41:36.053Z,14.10
2017-07-19T20:44:03.485Z,14.80
2017-07-19T20:46:30.902Z,15.30
2017-07-19T20:48:58.325Z,15.50
2017-07-19T20:51:26.517Z,14.40
2017-07-19T20:53:53.946Z,14.30
2017-07-19T20:56:21.368Z,14.30
2017-07-19T20:58:48.787Z,15.20
2017-07-19T21:01:16.216Z,15.70
2017-07-19T21:03:44.401Z,14.60
2017-07-19T21:06:11.833Z,14.50
2017-07-19T21:08:39.257Z,15.00
2017-07-19T21:11:06.694Z,15.90
2017-07-19T21:13:34.113Z,16.40
2017-07-19T21:16:02.309Z,15.90
2017-07-19T21:18:29.733Z,15.90
2017-07-19T21:20:57.156Z,15.50
2017-07-19T21:23:24.585Z,15.50
2017-07-19T21:25:52.153Z,15.80
2017-07-19T21:28:19.578Z,16.20
2017-07-19T21:30:47.013Z,16.00
2017-07-19T21:33:14.433Z,16.10
2017-07-19T21:35:41.848Z,16.20
2017-07-19T21:38:09.276Z,16.10
2017-07-19T21:40:37.456Z,17.20
2017-07-19T21:43:04.892Z,16.60
2017-07-19T21:45:32.324Z,17.50
2017-07-19T21:47:59.753Z,17.80
2017-07-19T21:50:27.232Z,18.50
2017-07-19T21:52:54.676Z,19.80
2017-07-19T21:55:22.117Z,19.30
2017-07-19T21:57:49.543Z,19.70
2017-07-19T22:00:17.746Z,20.60
2017-07-19T22:02:45.156Z,20.60
2017-07-19T22:05:12.582Z,21.20
2017-07-19T22:07:40.017Z,22.10
2017-07-19T22:10:07.436Z,21.60
2017-07-19T22:12:35.640Z,20.80
2017-07-19T22:15:03.052Z,20.80
2017-07-19T22:17:30.476Z,22.10
2017-07-19T22:19:57.900Z,21.90
2017-07-19T22:22:25.333Z,22.90
2017-07-19T22:24:53.516Z,22.80
2017-07-19T22:27:20.973Z,22.80
2017-07-19T22:29:48.393Z,23.10
2017-07-19T22:32:15.818Z,23.20
2017-07-19T22:34:43.244Z,23.50
2017-07-19T22:37:10.731Z,23.00
2017-07-19T22:39:38.141Z,23.30
2017-07-19T22:42:06.328Z,23.60
2017-07-19T22:44:33.757Z,23.50
2017-07-19T22:47:01.183Z,23.80
2017-07-19T22:49:28.612Z,23.90
2017-07-19T22:51:56.041Z,24.50
2017-07-19T22:54:24.232Z,24.60
2017-07-19T22:56:51.657Z,24.60
2017-07-19T22:59:19.093Z,24.60
2017-07-19T23:01:46.518Z,25.10
2017-07-19T23:04:13.959Z,25.30
2017-07-19T23:06:41.377Z,25.00
2017-07-19T23:09:08.804Z,25.30
2017-07-19T23:11:36.300Z,24.30
2017-07-19T23:14:04.496Z,23.40
2017-07-19T23:16:31.916Z,23.40
2017-07-19T23:18:59.352Z,24.10
2017-07-19T23:21:26.796Z,24.60
2017-07-19T23:23:54.223Z,24.20
2017-07-19T23:26:21.657Z,24.40
2017-07-19T23:28:49.849Z,25.40
2017-07-19T23:31:17.344Z,25.40
2017-07-19T23:33:44.764Z,25.50
2017-07-19T23:36:12.195Z,24.90
2017-07-19T23:38:39.705Z,23.80
2017-07-19T23:41:07.350Z,23.50
2017-07-19T23:43:34.760Z,23.20
2017-07-19T23:46:02.971Z,23.30
2017-07-19T23:48:30.389Z,23.30
2017-07-19T23:50:57.817Z,23.70
2017-07-19T23:53:25.241Z,23.70
2017-07-19T23:55:52.672Z,24.00
2017-07-19T23:58:20.859Z,24.50
